CheckWX is a tool to help pilots better visualize weather data.  It is not intended as a substitute for an official pre-flight weather briefing.

08:13:18 UTC

DRRM METAR
Maradi Airport
Maradi, Niger
Current

1 hour ago

DRRM 220700Z 08002KT 4600 DU NSC 24/M00 Q1013
Observed
Feb-22 @ 07:00 UTC
Wind
  • 080° at 2 KTS
Visibility
4,603 meters
Flight Rules
IFR
Conditions
Dust
Cloud Levels
  • Clear skies
Temperature
24°C / 75°F
Dewpoint
C / 32°F
Humidity
21%
Altimeter
29.91" Hg
Pressure
1012.92 hPa
Previous

2 hours ago

DRRM 220600Z 08002KT 7000 NSC 19/04 Q1013
Observed
Feb-22 @ 06:00 UTC
Wind
  • 080° at 2 KTS
Visibility
7,001 meters
Flight Rules
MVFR
Cloud Levels
  • Clear skies
Temperature
19°C / 66°F
Dewpoint
C / 39°F
Humidity
37%
Altimeter
29.91" Hg
Pressure
1012.92 hPa
Previous

14 hours ago

DRRM 211800Z 08004KT 6000 NSC 32/04 Q1012
Observed
Feb-21 @ 18:00 UTC
Wind
  • 080° at 4 KTS
Visibility
6,003 meters
Flight Rules
MVFR
Cloud Levels
  • Clear skies
Temperature
32°C / 90°F
Dewpoint
C / 39°F
Humidity
17%
Altimeter
29.88" Hg
Pressure
1011.92 hPa